Time;durP1;ratioP1;P1;durP2;ratioP2;P2;SDS_P1;SDS_P2;PMS_P1;PMS_P2;Temp;Humidity;BMP_temperature;BMP_pressure;BME280_temperature;BME280_humidity;BME280_pressure;Samples;Min_cycle;Max_cycle;Signal;HPM_P1;HPM_P2
2022/04/19 00:00:20;;;;;;;;;;;21.60;46.30;;;;;;5093709;28;20383;-50
2022/04/19 00:02:47;;;;;;;;;;;21.60;46.30;;;;;;5093904;28;20359;-49
2022/04/19 00:05:14;;;;;;;;;;;21.60;46.30;;;;;;5093701;28;19977;-46
2022/04/19 00:07:42;;;;;;;;;;;21.60;46.30;;;;;;5075773;28;19924;-48
2022/04/19 00:10:09;;;;;;;;;;;21.60;46.30;;;;;;5093116;28;19928;-44
2022/04/19 00:12:36;;;;;;;;;;;21.60;46.30;;;;;;5093911;28;19928;-45
2022/04/19 00:15:04;;;;;;;;;;;21.60;46.30;;;;;;5093904;28;19931;-47
2022/04/19 00:17:31;;;;;;;;;;;21.60;46.30;;;;;;5093867;28;20011;-48
2022/04/19 00:19:58;;;;;;;;;;;21.60;46.30;;;;;;5093575;28;19931;-46
2022/04/19 00:22:27;;;;;;;;;;;21.60;46.30;;;;;;5093515;28;20109;-46
2022/04/19 00:24:55;;;;;;;;;;;21.60;46.30;;;;;;5092822;28;19931;-48
2022/04/19 00:27:23;;;;;;;;;;;21.60;46.30;;;;;;5093795;28;20003;-45
2022/04/19 00:29:50;;;;;;;;;;;21.60;46.30;;;;;;5093786;28;19924;-45
2022/04/19 00:32:17;;;;;;;;;;;21.60;46.30;;;;;;5093753;28;20336;-49
2022/04/19 00:34:46;;;;;;;;;;;21.60;46.30;;;;;;5093457;28;19924;-51
2022/04/19 00:37:13;;;;;;;;;;;21.60;46.30;;;;;;5093737;28;19924;-48
2022/04/19 00:39:40;;;;;;;;;;;21.60;46.30;;;;;;5095802;28;20414;-47
2022/04/19 00:42:08;;;;;;;;;;;21.60;46.90;;;;;;5097375;28;19924;-48
2022/04/19 00:44:37;;;;;;;;;;;21.60;46.30;;;;;;5097544;28;19931;-49
2022/04/19 00:47:05;;;;;;;;;;;21.60;46.30;;;;;;5097589;28;19924;-46
2022/04/19 00:49:34;;;;;;;;;;;21.60;46.30;;;;;;5097192;28;19973;-45
2022/04/19 00:52:01;;;;;;;;;;;21.50;46.20;;;;;;5097059;28;19973;-46
2022/04/19 00:54:29;;;;;;;;;;;21.50;46.20;;;;;;5096166;28;20462;-51
2022/04/19 00:56:56;;;;;;;;;;;21.50;46.20;;;;;;5096920;28;19935;-52
2022/04/19 00:59:24;;;;;;;;;;;21.50;46.20;;;;;;5097318;28;19993;-50
2022/04/19 01:01:51;;;;;;;;;;;21.50;46.20;;;;;;5085358;28;19924;-44
2022/04/19 01:04:18;;;;;;;;;;;21.50;46.30;;;;;;5076906;28;19990;-44
2022/04/19 01:06:45;;;;;;;;;;;21.60;46.30;;;;;;5076532;28;20380;-51
2022/04/19 01:09:13;;;;;;;;;;;21.50;46.20;;;;;;5076567;28;19936;-44
2022/04/19 01:14:26;;;;;;;;;;;21.60;46.30;;;;;;5097057;28;19970;-46
2022/04/19 01:16:54;;;;;;;;;;;21.50;46.20;;;;;;5096700;28;19924;-45
2022/04/19 01:19:21;;;;;;;;;;;21.50;46.20;;;;;;5096630;28;19970;-45
2022/04/19 01:21:48;;;;;;;;;;;21.50;46.20;;;;;;5096782;28;19966;-47
2022/04/19 01:24:16;;;;;;;;;;;21.50;46.20;;;;;;5096410;28;20292;-45
2022/04/19 01:26:44;;;;;;;;;;;21.50;46.20;;;;;;5095500;28;19963;-52
2022/04/19 01:29:11;;;;;;;;;;;21.50;46.20;;;;;;5096749;28;19946;-53
2022/04/19 01:31:39;;;;;;;;;;;21.50;46.30;;;;;;5096389;28;19924;-45
2022/04/19 01:34:07;;;;;;;;;;;21.50;46.20;;;;;;5096319;28;19928;-45
2022/04/19 01:36:35;;;;;;;;;;;21.50;46.20;;;;;;5096254;28;19924;-49
2022/04/19 01:39:06;;;;;;;;;;;21.50;46.20;;;;;;5096543;28;19977;-49
2022/04/19 01:41:33;;;;;;;;;;;21.50;46.30;;;;;;5095480;28;19979;-47
2022/04/19 01:44:00;;;;;;;;;;;21.50;46.30;;;;;;5096061;28;19973;-44
2022/04/19 01:46:27;;;;;;;;;;;21.50;46.20;;;;;;5096419;28;19973;-45
2022/04/19 01:48:55;;;;;;;;;;;21.50;46.20;;;;;;5096070;28;19924;-50
2022/04/19 01:51:22;;;;;;;;;;;21.50;46.30;;;;;;5095228;28;19924;-49
2022/04/19 01:53:49;;;;;;;;;;;21.50;46.30;;;;;;5095980;28;19971;-47
2022/04/19 01:56:16;;;;;;;;;;;21.50;46.20;;;;;;5094901;28;19977;-45
2022/04/19 01:58:44;;;;;;;;;;;21.50;46.30;;;;;;5095851;28;19946;-52
2022/04/19 02:01:11;;;;;;;;;;;21.50;46.20;;;;;;5095828;28;19924;-44
2022/04/19 02:03:39;;;;;;;;;;;21.50;46.20;;;;;;5095708;28;19924;-48
2022/04/19 02:06:08;;;;;;;;;;;21.50;46.20;;;;;;5095701;28;19935;-48
2022/04/19 02:08:35;;;;;;;;;;;21.50;46.20;;;;;;5095640;28;19928;-45
2022/04/19 02:11:02;;;;;;;;;;;21.50;46.20;;;;;;5094728;28;19982;-48
2022/04/19 02:13:31;;;;;;;;;;;21.50;46.90;;;;;;5095560;28;19924;-45
2022/04/19 02:16:00;;;;;;;;;;;21.50;46.30;;;;;;5096372;28;19960;-51
2022/04/19 02:18:28;;;;;;;;;;;21.50;46.30;;;;;;5095466;28;19931;-48
2022/04/19 02:20:55;;;;;;;;;;;21.50;46.20;;;;;;5095629;28;20360;-45
2022/04/19 02:23:23;;;;;;;;;;;21.50;46.20;;;;;;5095178;28;20449;-52
2022/04/19 02:25:52;;;;;;;;;;;21.50;46.30;;;;;;5094375;28;19924;-45
2022/04/19 02:28:19;;;;;;;;;;;21.50;46.20;;;;;;5095301;28;19928;-44
2022/04/19 02:30:46;;;;;;;;;;;21.50;46.30;;;;;;5095254;28;19928;-46
2022/04/19 02:33:13;;;;;;;;;;;21.50;46.30;;;;;;5095193;28;19925;-44
2022/04/19 02:35:41;;;;;;;;;;;21.50;46.30;;;;;;5095156;28;19924;-48
2022/04/19 02:38:09;;;;;;;;;;;21.50;46.30;;;;;;5095408;28;19924;-46
2022/04/19 02:40:36;;;;;;;;;;;21.50;46.20;;;;;;5094020;28;19985;-44
2022/04/19 02:43:03;;;;;;;;;;;21.50;46.20;;;;;;5094116;28;20337;-49
2022/04/19 02:45:30;;;;;;;;;;;21.50;46.30;;;;;;5094916;28;20436;-52
2022/04/19 02:48:03;;;;;;;;;;;21.50;46.30;;;;;;5094923;28;20375;-52
2022/04/19 02:50:40;;;;;;;;;;;21.50;46.30;;;;;;5094766;28;19924;-53
2022/04/19 02:53:07;;;;;;;;;;;21.50;46.30;;;;;;5095197;28;19928;-51
2022/04/19 02:55:34;;;;;;;;;;;21.50;46.30;;;;;;5093892;28;19931;-50
2022/04/19 02:58:00;;;;;;;;;;;21.50;46.30;;;;;;5095814;28;19924;-52
2022/04/19 03:00:28;;;;;;;;;;;21.50;46.30;;;;;;5094436;28;20379;-51
2022/04/19 03:02:55;;;;;;;;;;;21.50;46.30;;;;;;5094415;28;19975;-53
2022/04/19 03:05:22;;;;;;;;;;;21.50;46.30;;;;;;5094789;28;20265;-53
2022/04/19 03:07:49;;;;;;;;;;;21.50;46.30;;;;;;5094845;28;19981;-52
2022/04/19 03:10:16;;;;;;;;;;;21.50;46.30;;;;;;5094807;28;19924;-53
2022/04/19 03:12:43;;;;;;;;;;;21.50;46.30;;;;;;5093843;28;19924;-51
2022/04/19 03:15:11;;;;;;;;;;;21.50;46.30;;;;;;5094415;28;19924;-53
2022/04/19 03:17:39;;;;;;;;;;;21.50;46.30;;;;;;5094649;28;19959;-49
2022/04/19 03:20:09;;;;;;;;;;;21.50;46.30;;;;;;5094627;28;20296;-52
2022/04/19 03:28:10;;;;;;;;;;;21.50;46.30;;;;;;5052796;28;19950;-47
2022/04/19 03:30:37;;;;;;;;;;;21.50;46.30;;;;;;5073783;28;19929;-45
2022/04/19 03:33:04;;;;;;;;;;;21.50;46.30;;;;;;5074122;28;20342;-50
2022/04/19 03:35:31;;;;;;;;;;;21.50;46.30;;;;;;5073833;28;19924;-47
2022/04/19 03:37:58;;;;;;;;;;;21.50;46.30;;;;;;5073768;28;19929;-45
2022/04/19 03:40:25;;;;;;;;;;;21.50;46.30;;;;;;5073747;28;19974;-52
2022/04/19 03:42:55;;;;;;;;;;;21.50;46.30;;;;;;5089949;28;19924;-48
2022/04/19 03:45:22;;;;;;;;;;;21.50;46.30;;;;;;5093851;28;20030;-52
2022/04/19 03:47:49;;;;;;;;;;;21.50;46.30;;;;;;5094212;28;19924;-52
2022/04/19 03:50:16;;;;;;;;;;;21.50;46.30;;;;;;5093720;28;19981;-45
2022/04/19 03:52:44;;;;;;;;;;;21.50;46.30;;;;;;5093802;28;19975;-51
2022/04/19 03:55:11;;;;;;;;;;;21.50;46.30;;;;;;5093684;28;19925;-44
2022/04/19 03:57:38;;;;;;;;;;;21.50;46.30;;;;;;5092806;28;20433;-49
2022/04/19 04:00:06;;;;;;;;;;;21.50;46.30;;;;;;5094050;28;20326;-52
2022/04/19 04:02:33;;;;;;;;;;;21.50;46.30;;;;;;5093728;28;19975;-50
2022/04/19 04:05:01;;;;;;;;;;;21.50;46.30;;;;;;5093876;28;20376;-50
2022/04/19 04:07:28;;;;;;;;;;;21.50;46.30;;;;;;5093640;28;20383;-51
2022/04/19 04:09:55;;;;;;;;;;;21.50;46.30;;;;;;5093982;28;19931;-49
2022/04/19 04:12:22;;;;;;;;;;;21.50;46.30;;;;;;5092723;28;19924;-49
2022/04/19 04:14:49;;;;;;;;;;;21.50;46.30;;;;;;5097776;28;19924;-45
2022/04/19 04:17:18;;;;;;;;;;;21.50;46.30;;;;;;5097772;28;19946;-49
2022/04/19 04:19:49;;;;;;;;;;;21.50;46.30;;;;;;5098113;28;19950;-46
2022/04/19 04:22:16;;;;;;;;;;;21.50;46.30;;;;;;5097713;28;19924;-46
2022/04/19 04:24:43;;;;;;;;;;;21.50;46.30;;;;;;5098339;28;19924;-46
2022/04/19 04:27:10;;;;;;;;;;;21.50;46.30;;;;;;5097014;28;19931;-44
2022/04/19 04:29:37;;;;;;;;;;;21.50;46.30;;;;;;5097869;28;19928;-48
2022/04/19 04:32:04;;;;;;;;;;;21.50;46.30;;;;;;5097544;28;19924;-46
2022/04/19 04:34:31;;;;;;;;;;;21.50;46.30;;;;;;5097479;28;19927;-46
2022/04/19 04:36:58;;;;;;;;;;;21.50;46.30;;;;;;5097433;28;19928;-47
2022/04/19 04:39:25;;;;;;;;;;;21.50;46.30;;;;;;5097355;28;19931;-46
2022/04/19 04:41:52;;;;;;;;;;;21.50;46.30;;;;;;5096756;28;20256;-49
2022/04/19 04:44:19;;;;;;;;;;;21.50;46.30;;;;;;5097197;28;20446;-44
2022/04/19 04:49:39;;;;;;;;;;;21.50;46.30;;;;;;5097520;28;19924;-45
2022/04/19 04:52:10;;;;;;;;;;;21.50;46.30;;;;;;5097073;28;19990;-46
2022/04/19 04:54:37;;;;;;;;;;;21.50;46.30;;;;;;5097017;28;20432;-47
2022/04/19 04:57:05;;;;;;;;;;;21.50;46.30;;;;;;5096156;28;19928;-45
2022/04/19 04:59:33;;;;;;;;;;;21.50;46.30;;;;;;5096987;28;19970;-50
2022/04/19 05:02:00;;;;;;;;;;;21.50;46.30;;;;;;5096895;28;19924;-45
2022/04/19 05:04:27;;;;;;;;;;;21.50;46.30;;;;;;5096778;28;19928;-48
2022/04/19 05:06:54;;;;;;;;;;;21.50;46.30;;;;;;5096873;28;19931;-44
2022/04/19 05:09:21;;;;;;;;;;;21.50;46.30;;;;;;5096803;28;19931;-45
2022/04/19 05:11:52;;;;;;;;;;;21.50;46.20;;;;;;5096549;28;19927;-47
2022/04/19 05:14:19;;;;;;;;;;;21.50;46.30;;;;;;5096703;28;19947;-46
2022/04/19 05:16:46;;;;;;;;;;;21.50;46.30;;;;;;5097170;28;19928;-47
2022/04/19 05:19:13;;;;;;;;;;;21.50;46.20;;;;;;5096488;28;19928;-45
2022/04/19 05:21:44;;;;;;;;;;;21.50;46.20;;;;;;5096765;28;19931;-47
2022/04/19 05:24:11;;;;;;;;;;;21.50;46.30;;;;;;5096019;28;19923;-51
2022/04/19 05:26:39;;;;;;;;;;;21.50;46.20;;;;;;5096364;28;19924;-44
2022/04/19 05:29:06;;;;;;;;;;;21.50;46.20;;;;;;5095745;28;19924;-50
2022/04/19 05:31:32;;;;;;;;;;;21.50;46.20;;;;;;5096947;28;19977;-44
2022/04/19 05:34:00;;;;;;;;;;;21.50;46.90;;;;;;5096622;28;20388;-48
2022/04/19 05:36:27;;;;;;;;;;;21.50;46.20;;;;;;5096591;28;19973;-49
2022/04/19 05:38:54;;;;;;;;;;;21.50;46.20;;;;;;5096565;28;19950;-50
2022/04/19 05:41:21;;;;;;;;;;;21.50;46.20;;;;;;5100222;28;19925;-50
2022/04/19 05:43:48;;;;;;;;;;;21.50;46.20;;;;;;5100346;28;19935;-44
2022/04/19 05:46:17;;;;;;;;;;;21.50;46.80;;;;;;5097853;28;19924;-51
2022/04/19 05:48:44;;;;;;;;;;;21.50;46.20;;;;;;5096297;28;19974;-50
2022/04/19 05:51:12;;;;;;;;;;;21.50;46.80;;;;;;5096229;28;20384;-46
2022/04/19 05:53:39;;;;;;;;;;;21.50;46.20;;;;;;5096511;28;19924;-48
2022/04/19 05:56:06;;;;;;;;;;;21.50;46.20;;;;;;5096090;28;20391;-47
2022/04/19 05:58:33;;;;;;;;;;;21.50;46.20;;;;;;5095194;28;19947;-46
2022/04/19 06:01:01;;;;;;;;;;;21.50;46.20;;;;;;5096179;28;20280;-52
2022/04/19 06:06:14;;;;;;;;;;;21.50;46.20;;;;;;5096315;28;20015;-49
2022/04/19 06:08:42;;;;;;;;;;;21.50;46.20;;;;;;5095898;28;19924;-51
2022/04/19 06:11:12;;;;;;;;;;;21.50;46.20;;;;;;5096167;28;19928;-49
2022/04/19 06:13:43;;;;;;;;;;;21.50;46.20;;;;;;5094782;28;20345;-46
2022/04/19 06:16:10;;;;;;;;;;;21.50;46.20;;;;;;5095854;28;20307;-50
2022/04/19 06:18:37;;;;;;;;;;;21.50;46.20;;;;;;5095560;28;20502;-47
2022/04/19 06:21:05;;;;;;;;;;;21.50;46.20;;;;;;5095767;28;19931;-47
2022/04/19 06:23:33;;;;;;;;;;;21.50;46.20;;;;;;5095136;28;20024;-52
2022/04/19 06:26:00;;;;;;;;;;;21.60;46.20;;;;;;5095544;28;19924;-47
2022/04/19 06:28:27;;;;;;;;;;;21.60;46.20;;;;;;5094666;28;19928;-50
2022/04/19 06:30:54;;;;;;;;;;;21.60;46.20;;;;;;5095438;28;19975;-51
2022/04/19 06:33:21;;;;;;;;;;;21.60;46.20;;;;;;5095444;28;20384;-46
2022/04/19 06:35:48;;;;;;;;;;;21.60;46.20;;;;;;5094725;28;20330;-50
2022/04/19 06:38:15;;;;;;;;;;;21.60;46.10;;;;;;5095357;28;19925;-45
2022/04/19 06:40:42;;;;;;;;;;;21.60;46.10;;;;;;5095346;28;19924;-49
2022/04/19 06:43:09;;;;;;;;;;;21.60;46.10;;;;;;5094439;28;20441;-51
2022/04/19 06:45:36;;;;;;;;;;;21.60;46.10;;;;;;5095439;28;19978;-46
2022/04/19 06:48:05;;;;;;;;;;;21.60;46.10;;;;;;5095199;28;19924;-48
2022/04/19 06:50:32;;;;;;;;;;;21.60;46.10;;;;;;5095129;28;19923;-48
2022/04/19 06:52:59;;;;;;;;;;;21.60;46.00;;;;;;5098301;28;19973;-48
2022/04/19 06:55:26;;;;;;;;;;;21.60;46.00;;;;;;5101030;28;20260;-50
2022/04/19 06:57:53;;;;;;;;;;;21.60;46.00;;;;;;5096902;28;19924;-50
2022/04/19 07:00:21;;;;;;;;;;;21.60;46.00;;;;;;5094606;28;19924;-52
2022/04/19 07:02:48;;;;;;;;;;;21.60;46.00;;;;;;5094914;28;20380;-47
2022/04/19 07:05:16;;;;;;;;;;;21.60;46.00;;;;;;5094978;28;19924;-45
2022/04/19 07:07:43;;;;;;;;;;;21.60;46.00;;;;;;5094765;28;20288;-49
2022/04/19 07:10:11;;;;;;;;;;;21.60;46.00;;;;;;5094585;28;19969;-49
2022/04/19 07:12:45;;;;;;;;;;;21.60;46.00;;;;;;5095126;28;19931;-49
2022/04/19 07:15:12;;;;;;;;;;;21.70;46.00;;;;;;5093722;28;19924;-52
2022/04/19 07:17:40;;;;;;;;;;;21.70;46.00;;;;;;5094867;28;19924;-51
2022/04/19 07:28:24;;;;;;;;;;;21.70;45.90;;;;;;5093256;28;19937;-44
2022/04/19 07:30:51;;;;;;;;;;;21.70;45.90;;;;;;5094460;28;19924;-47
2022/04/19 07:33:19;;;;;;;;;;;21.70;45.90;;;;;;5094078;28;19978;-48
2022/04/19 07:35:46;;;;;;;;;;;21.70;45.90;;;;;;5094343;28;19931;-52
2022/04/19 07:38:13;;;;;;;;;;;21.70;45.90;;;;;;5094300;28;19924;-50
2022/04/19 07:40:40;;;;;;;;;;;21.70;45.80;;;;;;5094239;28;19993;-46
2022/04/19 07:43:07;;;;;;;;;;;21.70;45.80;;;;;;5094211;28;19924;-48
2022/04/19 07:45:34;;;;;;;;;;;21.70;45.80;;;;;;5092889;28;19924;-45
2022/04/19 07:48:04;;;;;;;;;;;21.80;45.80;;;;;;5093775;28;19973;-48
2022/04/19 07:50:31;;;;;;;;;;;21.80;45.80;;;;;;5093713;28;20019;-48
2022/04/19 07:52:58;;;;;;;;;;;21.80;45.80;;;;;;5093754;28;19932;-51
2022/04/19 07:55:27;;;;;;;;;;;21.80;45.70;;;;;;5093808;28;19924;-49
2022/04/19 07:57:54;;;;;;;;;;;21.80;45.70;;;;;;5093856;28;20271;-51
2022/04/19 08:00:21;;;;;;;;;;;21.90;45.70;;;;;;5092446;28;19967;-46
2022/04/19 08:02:48;;;;;;;;;;;21.90;45.60;;;;;;5093775;28;19928;-44
2022/04/19 08:05:16;;;;;;;;;;;21.90;45.60;;;;;;5093632;28;19924;-44
2022/04/19 08:07:43;;;;;;;;;;;21.90;45.60;;;;;;5093521;28;19928;-45
2022/04/19 08:10:12;;;;;;;;;;;21.90;45.60;;;;;;5093501;28;20376;-45
2022/04/19 08:12:39;;;;;;;;;;;22.00;45.60;;;;;;5093384;28;19978;-45
2022/04/19 08:15:06;;;;;;;;;;;22.00;45.50;;;;;;5092847;28;19983;-51
2022/04/19 08:17:34;;;;;;;;;;;22.00;45.50;;;;;;5093797;28;20295;-46
2022/04/19 08:20:02;;;;;;;;;;;22.00;45.40;;;;;;5093407;28;19924;-50
2022/04/19 08:22:29;;;;;;;;;;;22.00;45.40;;;;;;5093280;28;19924;-46
2022/04/19 08:24:57;;;;;;;;;;;22.00;46.00;;;;;;5093146;28;20380;-51
2022/04/19 08:27:24;;;;;;;;;;;22.00;45.40;;;;;;5093439;28;20299;-45
2022/04/19 08:29:51;;;;;;;;;;;22.10;45.40;;;;;;5074701;28;19931;-48
2022/04/19 08:32:18;;;;;;;;;;;22.10;45.40;;;;;;5093379;28;20303;-45
2022/04/19 08:34:45;;;;;;;;;;;22.10;45.30;;;;;;5093554;28;19924;-46
2022/04/19 08:37:12;;;;;;;;;;;22.10;45.30;;;;;;5093278;28;19924;-44
2022/04/19 08:39:39;;;;;;;;;;;22.10;45.20;;;;;;5093194;28;19924;-47
2022/04/19 08:42:07;;;;;;;;;;;22.10;45.20;;;;;;5093247;28;19925;-45
2022/04/19 08:44:36;;;;;;;;;;;22.10;45.20;;;;;;5092230;28;19924;-49
2022/04/19 08:47:04;;;;;;;;;;;22.20;45.30;;;;;;5093191;28;19924;-46
2022/04/19 08:49:37;;;;;;;;;;;22.20;45.30;;;;;;5093223;28;19928;-46
2022/04/19 08:52:04;;;;;;;;;;;22.20;45.90;;;;;;5093161;28;20364;-48
2022/04/19 08:57:32;;;;;;;;;;;22.10;45.10;;;;;;5093554;28;19924;-45
2022/04/19 09:00:01;;;;;;;;;;;22.10;45.20;;;;;;5094410;28;19924;-46
2022/04/19 09:02:29;;;;;;;;;;;22.10;45.20;;;;;;5096815;28;19924;-45
2022/04/19 09:05:19;;;;;;;;;;;22.10;45.20;;;;;;5096911;28;19931;-46
2022/04/19 09:07:48;;;;;;;;;;;22.10;45.30;;;;;;5096808;28;19924;-47
2022/04/19 09:10:25;;;;;;;;;;;22.10;45.30;;;;;;5096805;28;19924;-44
2022/04/19 09:12:59;;;;;;;;;;;22.10;45.30;;;;;;5096693;28;19931;-49
2022/04/19 09:15:32;;;;;;;;;;;22.00;45.20;;;;;;5095652;28;19924;-50
2022/04/19 09:18:00;;;;;;;;;;;22.10;45.40;;;;;;5096785;28;20295;-50
2022/04/19 09:20:27;;;;;;;;;;;22.10;45.40;;;;;;5096407;28;19924;-52
2022/04/19 09:23:04;;;;;;;;;;;22.10;45.40;;;;;;5096291;28;19968;-53
2022/04/19 09:25:32;;;;;;;;;;;22.00;45.40;;;;;;5096399;28;19931;-50
2022/04/19 09:28:00;;;;;;;;;;;22.00;45.40;;;;;;5097834;28;19950;-48
2022/04/19 09:30:37;;;;;;;;;;;22.00;45.40;;;;;;5095424;28;19924;-52
2022/04/19 09:33:15;;;;;;;;;;;22.00;45.40;;;;;;5097012;28;19924;-52
2022/04/19 09:35:44;;;;;;;;;;;22.00;45.50;;;;;;5096326;28;19931;-53
2022/04/19 09:38:12;;;;;;;;;;;22.00;45.50;;;;;;5096538;28;19924;-47
2022/04/19 09:40:41;;;;;;;;;;;22.00;45.50;;;;;;5096480;28;19998;-47
2022/04/19 09:43:10;;;;;;;;;;;21.90;46.00;;;;;;5096499;28;20389;-45
2022/04/19 09:45:44;;;;;;;;;;;21.90;45.50;;;;;;5095159;28;19924;-49
2022/04/19 09:48:19;;;;;;;;;;;21.90;45.50;;;;;;5096125;28;19997;-48
2022/04/19 09:50:50;;;;;;;;;;;21.90;45.60;;;;;;5095909;28;19931;-52
2022/04/19 09:53:18;;;;;;;;;;;21.90;45.60;;;;;;5095958;28;19924;-45
2022/04/19 09:55:47;;;;;;;;;;;21.90;45.60;;;;;;5096155;28;19930;-52
2022/04/19 09:58:14;;;;;;;;;;;21.90;45.60;;;;;;5096057;28;19924;-50
2022/04/19 10:00:43;;;;;;;;;;;21.80;45.60;;;;;;5095370;28;19947;-53
2022/04/19 10:08:40;;;;;;;;;;;21.80;45.60;;;;;;5095677;28;19928;-48
2022/04/19 10:11:07;;;;;;;;;;;21.80;45.60;;;;;;5076935;28;19928;-45
2022/04/19 10:13:35;;;;;;;;;;;21.80;45.60;;;;;;5096365;28;19924;-45
2022/04/19 10:16:14;;;;;;;;;;;21.80;45.60;;;;;;5094506;28;19969;-45
2022/04/19 10:18:42;;;;;;;;;;;21.80;45.60;;;;;;5095381;28;19930;-44
2022/04/19 10:21:10;;;;;;;;;;;21.80;45.60;;;;;;5095297;28;20030;-45
2022/04/19 10:23:38;;;;;;;;;;;21.80;45.60;;;;;;5095025;28;19930;-48
2022/04/19 10:26:12;;;;;;;;;;;21.80;45.70;;;;;;5095187;28;19994;-45
2022/04/19 10:28:39;;;;;;;;;;;21.80;45.70;;;;;;5095174;28;19928;-46
2022/04/19 10:31:07;;;;;;;;;;;21.80;45.60;;;;;;5094269;28;19924;-48
2022/04/19 10:33:38;;;;;;;;;;;21.80;45.60;;;;;;5093850;28;20208;-45
2022/04/19 10:36:10;;;;;;;;;;;21.80;45.60;;;;;;5095105;28;19924;-44
2022/04/19 10:38:37;;;;;;;;;;;21.80;45.60;;;;;;5095103;28;19930;-49
2022/04/19 10:41:04;;;;;;;;;;;21.80;45.70;;;;;;5095016;28;19974;-47
2022/04/19 10:43:31;;;;;;;;;;;21.80;45.70;;;;;;5095207;28;20318;-44
2022/04/19 10:46:18;;;;;;;;;;;21.80;45.70;;;;;;5094032;28;20350;-44
2022/04/19 10:49:04;;;;;;;;;;;21.80;45.70;;;;;;5094748;28;19924;-45
2022/04/19 10:51:31;;;;;;;;;;;21.80;45.60;;;;;;5094625;28;20315;-44
2022/04/19 10:53:58;;;;;;;;;;;21.80;45.60;;;;;;5094748;28;20001;-51
2022/04/19 10:56:25;;;;;;;;;;;21.90;46.20;;;;;;5094663;28;20375;-44
2022/04/19 10:58:52;;;;;;;;;;;21.90;45.60;;;;;;5094694;28;19971;-49
2022/04/19 11:01:30;;;;;;;;;;;21.90;45.60;;;;;;5075675;28;19935;-44
2022/04/19 11:03:58;;;;;;;;;;;21.90;45.50;;;;;;5076736;28;20380;-50
2022/04/19 11:06:35;;;;;;;;;;;22.00;45.50;;;;;;5094807;28;19947;-47
2022/04/19 11:09:06;;;;;;;;;;;22.00;45.50;;;;;;5094502;28;19939;-47
2022/04/19 11:11:45;;;;;;;;;;;22.00;45.40;;;;;;5094500;28;19924;-44
2022/04/19 11:14:20;;;;;;;;;;;22.00;45.50;;;;;;5094499;28;19931;-46
2022/04/19 11:16:52;;;;;;;;;;;22.00;45.40;;;;;;5093748;28;19924;-52
2022/04/19 11:19:21;;;;;;;;;;;22.00;45.40;;;;;;5094354;28;19924;-49
2022/04/19 11:21:54;;;;;;;;;;;22.00;45.40;;;;;;5093901;28;19938;-45
2022/04/19 11:24:40;;;;;;;;;;;22.00;45.40;;;;;;5093988;28;19924;-50
2022/04/19 11:27:07;;;;;;;;;;;22.00;45.50;;;;;;5094422;28;19947;-52
2022/04/19 11:29:47;;;;;;;;;;;22.00;45.40;;;;;;5094421;28;19924;-46
2022/04/19 11:32:22;;;;;;;;;;;22.00;45.50;;;;;;5075658;28;19924;-49
2022/04/19 11:35:04;;;;;;;;;;;22.00;45.50;;;;;;5094110;28;20022;-53
2022/04/19 11:37:32;;;;;;;;;;;22.00;45.50;;;;;;5094302;28;19924;-53
2022/04/19 11:48:31;;;;;;;;;;;21.90;45.50;;;;;;5093932;28;19925;-51
2022/04/19 11:51:08;;;;;;;;;;;21.90;45.50;;;;;;5093738;28;19935;-52
2022/04/19 11:53:36;;;;;;;;;;;22.00;45.60;;;;;;5094177;28;20294;-48
2022/04/19 11:56:03;;;;;;;;;;;21.90;45.50;;;;;;5093779;28;19924;-50
2022/04/19 11:58:33;;;;;;;;;;;22.00;45.60;;;;;;5093823;28;20337;-51
2022/04/19 12:01:04;;;;;;;;;;;22.00;45.50;;;;;;5094042;28;19928;-48
2022/04/19 12:03:32;;;;;;;;;;;21.90;45.50;;;;;;5092699;28;20030;-45
2022/04/19 12:06:07;;;;;;;;;;;22.00;45.50;;;;;;5094386;28;19989;-45
2022/04/19 12:08:37;;;;;;;;;;;22.00;45.50;;;;;;5093781;28;19963;-45
2022/04/19 12:11:05;;;;;;;;;;;22.00;45.50;;;;;;5094127;28;19971;-44
2022/04/19 12:13:33;;;;;;;;;;;22.00;45.50;;;;;;5093489;28;19928;-46
2022/04/19 12:16:03;;;;;;;;;;;22.00;45.40;;;;;;5093518;28;19924;-44
2022/04/19 12:18:31;;;;;;;;;;;22.00;45.50;;;;;;5092584;28;19924;-49
2022/04/19 12:20:59;;;;;;;;;;;22.00;45.50;;;;;;5093437;28;19924;-44
2022/04/19 12:23:26;;;;;;;;;;;22.00;45.50;;;;;;5093328;28;19931;-45
2022/04/19 12:26:00;;;;;;;;;;;22.00;45.50;;;;;;5093657;28;19931;-46
2022/04/19 12:28:34;;;;;;;;;;;22.00;46.10;;;;;;5093788;28;19924;-51
2022/04/19 12:31:01;;;;;;;;;;;22.00;45.50;;;;;;5093455;28;19924;-52
2022/04/19 12:33:28;;;;;;;;;;;22.00;45.50;;;;;;5092562;28;19955;-49
2022/04/19 12:35:55;;;;;;;;;;;22.00;45.50;;;;;;5097101;28;19932;-52
2022/04/19 12:38:29;;;;;;;;;;;22.00;45.50;;;;;;5097753;28;19930;-48
2022/04/19 12:40:56;;;;;;;;;;;22.00;45.50;;;;;;5097365;28;19932;-46
2022/04/19 12:43:42;;;;;;;;;;;22.00;45.50;;;;;;5097249;28;19924;-53
2022/04/19 12:46:09;;;;;;;;;;;22.00;45.50;;;;;;5097278;28;20394;-52
2022/04/19 12:48:36;;;;;;;;;;;22.00;45.50;;;;;;5096672;28;20038;-47
2022/04/19 12:51:04;;;;;;;;;;;22.00;45.60;;;;;;5097067;28;20003;-53
2022/04/19 12:53:36;;;;;;;;;;;22.00;45.50;;;;;;5097138;28;19969;-50
2022/04/19 12:56:10;;;;;;;;;;;22.00;45.60;;;;;;5097111;28;19928;-49
2022/04/19 12:58:44;;;;;;;;;;;22.00;45.60;;;;;;5097129;28;19924;-51
2022/04/19 13:01:12;;;;;;;;;;;22.00;45.60;;;;;;5097026;28;20312;-51
2022/04/19 13:03:40;;;;;;;;;;;22.00;45.60;;;;;;5096079;28;19928;-52
2022/04/19 13:14:24;;;;;;;;;;;22.00;45.60;;;;;;5096873;28;20371;-44
2022/04/19 13:16:51;;;;;;;;;;;22.00;45.60;;;;;;5097088;28;19925;-46
2022/04/19 13:19:18;;;;;;;;;;;22.00;45.60;;;;;;5095801;28;20368;-46
2022/04/19 13:21:45;;;;;;;;;;;22.00;45.60;;;;;;5096577;28;19924;-52
2022/04/19 13:24:12;;;;;;;;;;;22.00;45.70;;;;;;5096384;28;19924;-45
2022/04/19 13:26:39;;;;;;;;;;;22.00;45.60;;;;;;5096848;28;19951;-52
2022/04/19 13:29:07;;;;;;;;;;;22.00;45.70;;;;;;5096500;28;19924;-45
2022/04/19 13:31:34;;;;;;;;;;;22.00;45.70;;;;;;5096518;28;19931;-52
2022/04/19 13:34:02;;;;;;;;;;;22.00;45.70;;;;;;5095527;28;19925;-52
2022/04/19 13:36:29;;;;;;;;;;;22.00;45.70;;;;;;5096639;28;20329;-45
2022/04/19 13:38:56;;;;;;;;;;;22.00;45.70;;;;;;5096358;28;20019;-49
2022/04/19 13:41:23;;;;;;;;;;;22.00;45.80;;;;;;5097184;28;19930;-45
2022/04/19 13:43:51;;;;;;;;;;;22.00;45.80;;;;;;5096286;28;19935;-50
2022/04/19 13:46:18;;;;;;;;;;;22.00;45.80;;;;;;5095954;28;20014;-45
2022/04/19 13:48:45;;;;;;;;;;;22.00;45.80;;;;;;5095256;28;19924;-48
2022/04/19 13:51:12;;;;;;;;;;;22.00;45.80;;;;;;5096273;28;19924;-52
2022/04/19 13:53:39;;;;;;;;;;;22.00;45.80;;;;;;5096033;28;19938;-52
2022/04/19 13:56:06;;;;;;;;;;;22.00;45.80;;;;;;5095904;28;19930;-48
2022/04/19 13:58:33;;;;;;;;;;;22.00;45.80;;;;;;5096268;28;19925;-45
2022/04/19 14:01:02;;;;;;;;;;;22.00;45.80;;;;;;5096285;28;19931;-47
2022/04/19 14:03:29;;;;;;;;;;;22.00;45.80;;;;;;5095004;28;20022;-46
2022/04/19 14:06:00;;;;;;;;;;;22.00;45.80;;;;;;5095922;28;19924;-45
2022/04/19 14:08:27;;;;;;;;;;;22.00;45.70;;;;;;5096012;28;20311;-48
2022/04/19 14:10:55;;;;;;;;;;;22.00;45.80;;;;;;5096087;28;19924;-49
2022/04/19 14:13:22;;;;;;;;;;;22.00;45.80;;;;;;5095544;28;19924;-49
2022/04/19 14:15:51;;;;;;;;;;;22.00;45.80;;;;;;5095473;28;19924;-46
2022/04/19 14:18:18;;;;;;;;;;;22.00;45.80;;;;;;5094952;28;19924;-52
2022/04/19 14:20:52;;;;;;;;;;;22.00;45.80;;;;;;5095403;28;19924;-52
2022/04/19 14:23:19;;;;;;;;;;;22.00;45.80;;;;;;5095479;28;20351;-47
2022/04/19 14:25:48;;;;;;;;;;;22.00;45.80;;;;;;5095330;28;19928;-45
2022/04/19 14:28:15;;;;;;;;;;;22.00;45.80;;;;;;5095579;28;19924;-44
2022/04/19 14:33:29;;;;;;;;;;;22.00;45.80;;;;;;5094357;28;19931;-49
2022/04/19 14:35:56;;;;;;;;;;;22.00;45.80;;;;;;5095573;28;20292;-46
2022/04/19 14:38:23;;;;;;;;;;;22.00;45.80;;;;;;5095204;28;19924;-44
2022/04/19 14:40:51;;;;;;;;;;;22.00;45.80;;;;;;5095434;28;20302;-46
2022/04/19 14:43:18;;;;;;;;;;;22.00;45.80;;;;;;5095089;28;19925;-48
2022/04/19 14:45:45;;;;;;;;;;;22.00;45.80;;;;;;5094996;28;19973;-45
2022/04/19 14:48:13;;;;;;;;;;;22.00;45.80;;;;;;5094298;28;20414;-47
2022/04/19 14:53:32;;;;;;;;;;;22.00;45.80;;;;;;5094837;28;19928;-48
2022/04/19 14:56:00;;;;;;;;;;;22.00;45.80;;;;;;5094766;28;19924;-49
2022/04/19 14:58:28;;;;;;;;;;;22.00;45.80;;;;;;5094275;28;19931;-47
2022/04/19 15:01:01;;;;;;;;;;;22.00;45.90;;;;;;5095145;28;20315;-44
2022/04/19 15:03:28;;;;;;;;;;;22.00;45.90;;;;;;5094138;28;20321;-52
2022/04/19 15:05:58;;;;;;;;;;;22.00;45.90;;;;;;5094941;28;20272;-45
2022/04/19 15:08:27;;;;;;;;;;;22.00;45.90;;;;;;5094553;28;19924;-49
2022/04/19 15:10:54;;;;;;;;;;;22.00;45.90;;;;;;5094578;28;19924;-50
2022/04/19 15:13:21;;;;;;;;;;;22.00;46.00;;;;;;5094870;28;19947;-48
2022/04/19 15:15:48;;;;;;;;;;;22.00;45.90;;;;;;5094539;28;19931;-46